Santa Paula, California
Current Conditions -  °F | °C
As of 9:55 AM on Saturday 25 Oct 2014 (Local Time) from KCMA Reporting Station
Clear Clear  
Wind Chill: 66°   Ceiling: Unl
Heat Index: 66°   Visibility: 10mi
Dew Point: 53°   Wind: 3mph
Humidity: 63%   Direction: 290°WNW
Pressure: 30.06"   Gusts: NA
Location:  34.35°N, 119.05°W
Report Text: KCMA 251655Z 29003KT 10SM CLR 19/12 A3006 RMK AO2 SLP186 T01890117
Loading
Personal Weather Stations






























Interactive Weather Map
Tropical Storm Tracking
New forecast layout! Learn more

10-Day Weather Forecast

Advertisements
Track Severe Weather on mobile